Kings Creek, Kentucky
Current Conditions -  °F | °C
As of 3:55 AM on Wednesday 22 Oct 2014 (Local Time) from KLNP Reporting Station
Overcast Overcast  
Wind Chill: 38°   Ceiling: 600
Heat Index: 41°   Visibility: 10mi
Dew Point: 41°   Wind: 5mph
Humidity: 100%   Direction: 320°NW
Pressure: 30.09"   Gusts: NA
Location:  37.1283°N, 82.8498°W
Report Text: KLNP 220755Z AUTO 32004KT 10SM OVC006 05/05 A3009 RMK AO2
Loading
Personal Weather Stations






























Interactive Weather Map
Tropical Storm Tracking
New forecast layout! Learn more

10-Day Weather Forecast

Advertisements
Track Severe Weather on mobile